Time;durP1;ratioP1;P1;durP2;ratioP2;P2;SDS_P1;SDS_P2;PMS_P1;PMS_P2;Temp;Humidity;BMP_temperature;BMP_pressure;BME280_temperature;BME280_humidity;BME280_pressure;Samples;Min_cycle;Max_cycle;Signal;HPM_P1;HPM_P2
2024/02/24 00:01:17;;;;;;;1.50;0.38;;;7.40;99.90;;;;;;5054467;28;20477;-77
2024/02/24 00:03:42;;;;;;;1.23;0.45;;;7.40;99.90;;;;;;5053458;28;20056;-76
2024/02/24 00:06:08;;;;;;;0.75;0.40;;;7.30;99.90;;;;;;5053139;28;20118;-76
2024/02/24 00:08:34;;;;;;;0.70;0.30;;;7.30;99.90;;;;;;5053799;28;20025;-76
2024/02/24 00:10:59;;;;;;;0.40;0.35;;;7.30;99.90;;;;;;5054019;28;20029;-76
2024/02/24 00:13:25;;;;;;;0.30;0.30;;;7.30;99.90;;;;;;5053297;28;20029;-76
2024/02/24 00:15:51;;;;;;;1.17;0.38;;;7.30;99.90;;;;;;5054382;28;20029;-76
2024/02/24 00:18:18;;;;;;;0.75;0.40;;;7.30;99.90;;;;;;5052631;28;20036;-76
2024/02/24 00:20:44;;;;;;;1.25;0.70;;;7.30;99.90;;;;;;5054027;28;20051;-76
2024/02/24 00:23:09;;;;;;;0.77;0.40;;;7.30;99.90;;;;;;5052053;28;20386;-76
2024/02/24 00:25:35;;;;;;;3.95;0.40;;;7.30;99.90;;;;;;5052422;28;20075;-76
2024/02/24 00:28:00;;;;;;;1.25;0.32;;;7.30;99.90;;;;;;5054078;28;20025;-77
2024/02/24 00:30:26;;;;;;;0.30;0.30;;;7.30;99.90;;;;;;5052059;28;20390;-76
2024/02/24 00:32:52;;;;;;;1.25;0.20;;;7.20;99.90;;;;;;5052465;28;20029;-76
2024/02/24 00:35:17;;;;;;;1.30;0.35;;;7.20;99.90;;;;;;5053881;28;20108;-76
2024/02/24 00:37:43;;;;;;;1.60;0.30;;;7.20;99.90;;;;;;5053953;28;20021;-76
2024/02/24 00:40:09;;;;;;;0.85;0.40;;;7.20;99.90;;;;;;5052499;28;20040;-76
2024/02/24 00:42:35;;;;;;;1.35;0.30;;;7.30;99.90;;;;;;5051842;28;20025;-76
2024/02/24 00:45:00;;;;;;;0.45;0.30;;;7.30;99.90;;;;;;5052261;28;20106;-76
2024/02/24 00:47:26;;;;;;;0.25;0.25;;;7.30;99.90;;;;;;5051830;28;20028;-76
2024/02/24 00:49:51;;;;;;;0.43;0.30;;;7.30;99.90;;;;;;5052298;28;20037;-77
2024/02/24 00:52:17;;;;;;;0.40;0.30;;;7.30;99.90;;;;;;5053535;28;20021;-76
2024/02/24 00:54:43;;;;;;;2.40;0.40;;;7.40;99.90;;;;;;5052872;28;20100;-76
2024/02/24 00:57:08;;;;;;;0.85;0.30;;;7.40;99.90;;;;;;5052266;28;20465;-76
2024/02/24 00:59:34;;;;;;;0.98;0.20;;;7.40;99.90;;;;;;5052516;28;20059;-76
2024/02/24 01:01:59;;;;;;;0.93;0.40;;;7.40;99.90;;;;;;5068817;28;20465;-76
2024/02/24 01:04:25;;;;;;;1.52;0.50;;;7.40;99.90;;;;;;5052778;28;20025;-76
2024/02/24 01:06:51;;;;;;;1.02;0.40;;;7.40;99.90;;;;;;5052223;28;20090;-76
2024/02/24 01:09:16;;;;;;;0.93;0.47;;;7.40;99.90;;;;;;5053333;28;20025;-77
2024/02/24 01:11:42;;;;;;;0.60;0.50;;;7.40;99.90;;;;;;5051353;28;20466;-77
2024/02/24 01:14:08;;;;;;;1.13;0.60;;;7.30;99.90;;;;;;5051975;28;20140;-77
2024/02/24 01:16:33;;;;;;;0.57;0.40;;;7.30;99.90;;;;;;5051510;28;20041;-76
2024/02/24 01:18:59;;;;;;;0.40;0.28;;;7.20;99.90;;;;;;5052736;28;20028;-77
2024/02/24 01:21:24;;;;;;;1.20;0.35;;;7.10;99.90;;;;;;5052497;28;20085;-76
2024/02/24 01:23:51;;;;;;;1.40;0.38;;;6.90;99.90;;;;;;5051717;28;20036;-77
2024/02/24 01:26:16;;;;;;;0.98;0.30;;;6.90;99.90;;;;;;5068385;28;20025;-77
2024/02/24 01:28:42;;;;;;;0.95;0.22;;;6.80;99.90;;;;;;5067445;28;20036;-77
2024/02/24 01:31:08;;;;;;;1.50;0.30;;;6.70;99.90;;;;;;5068459;28;20029;-77
2024/02/24 01:33:33;;;;;;;0.20;0.17;;;6.70;99.90;;;;;;5051037;28;20028;-77
2024/02/24 01:35:59;;;;;;;1.60;0.30;;;6.60;99.90;;;;;;5051665;28;20052;-77
2024/02/24 01:38:24;;;;;;;0.50;0.10;;;6.60;99.90;;;;;;5052352;28;20407;-76
2024/02/24 01:40:50;;;;;;;0.17;0.17;;;6.70;99.90;;;;;;5051742;28;20037;-77
2024/02/24 01:43:23;;;;;;;0.20;0.20;;;6.70;99.90;;;;;;5067854;28;20492;-77
2024/02/24 01:45:48;;;;;;;0.47;0.20;;;6.80;99.90;;;;;;5067789;28;20057;-77
2024/02/24 01:48:14;;;;;;;0.30;0.10;;;6.70;99.90;;;;;;5051448;28;20463;-76
2024/02/24 01:50:40;;;;;;;0.73;0.10;;;6.60;99.90;;;;;;5067491;28;20386;-76
2024/02/24 01:53:08;;;;;;;0.10;0.10;;;6.70;99.90;;;;;;5052589;28;20031;-76
2024/02/24 01:55:33;;;;;;;0.45;0.30;;;6.70;99.90;;;;;;5067495;28;20032;-76
2024/02/24 01:58:02;;;;;;;0.13;0.10;;;6.70;99.90;;;;;;5052453;28;20386;-77
2024/02/24 02:00:27;;;;;;;0.10;0.10;;;6.60;99.90;;;;;;5051589;28;20430;-76
2024/02/24 02:02:54;;;;;;;0.37;0.20;;;6.60;99.90;;;;;;5052573;28;20105;-76
2024/02/24 02:05:19;;;;;;;0.83;0.20;;;6.60;99.90;;;;;;5052524;28;20100;-77
2024/02/24 02:07:45;;;;;;;0.30;0.20;;;6.60;99.90;;;;;;5051731;28;20052;-77
2024/02/24 02:10:11;;;;;;;0.15;0.15;;;6.70;99.90;;;;;;5052487;28;20029;-77
2024/02/24 02:12:36;;;;;;;0.20;0.20;;;6.60;99.90;;;;;;5051833;28;20104;-77
2024/02/24 02:15:03;;;;;;;0.22;0.20;;;6.60;99.90;;;;;;5052350;28;20033;-78
2024/02/24 02:17:29;;;;;;;0.10;0.10;;;6.60;99.90;;;;;;5067450;28;20474;-77
2024/02/24 02:20:01;;;;;;;0.30;0.20;;;6.60;99.90;;;;;;5052272;28;20032;-77
2024/02/24 02:22:26;;;;;;;0.25;0.20;;;6.60;99.90;;;;;;5051868;28;20057;-76
2024/02/24 02:24:52;;;;;;;0.20;0.20;;;6.50;99.90;;;;;;5052286;28;20060;-77
2024/02/24 02:27:17;;;;;;;1.00;0.10;;;6.50;99.90;;;;;;5052327;28;20079;-77
2024/02/24 02:29:43;;;;;;;0.10;0.10;;;6.50;99.90;;;;;;5051839;28;20025;-77
2024/02/24 02:32:08;;;;;;;0.65;0.20;;;6.40;99.90;;;;;;5067430;28;20033;-77
2024/02/24 02:34:34;;;;;;;0.22;0.15;;;6.40;99.90;;;;;;5050368;28;20025;-77
2024/02/24 02:37:00;;;;;;;0.15;0.10;;;6.40;99.90;;;;;;5052365;28;20024;-77
2024/02/24 02:39:25;;;;;;;0.20;0.20;;;6.40;99.90;;;;;;5051670;28;20033;-76
2024/02/24 02:41:51;;;;;;;0.13;0.13;;;6.40;99.90;;;;;;5067812;28;20094;-77
2024/02/24 02:44:17;;;;;;;0.13;0.13;;;6.40;99.90;;;;;;5051847;28;20036;-77
2024/02/24 02:46:47;;;;;;;0.17;0.15;;;6.40;99.90;;;;;;5051622;28;20029;-77
2024/02/24 02:49:13;;;;;;;0.30;0.30;;;6.40;99.90;;;;;;5067592;28;20090;-77
2024/02/24 02:51:38;;;;;;;0.13;0.10;;;6.40;99.90;;;;;;5066750;28;20028;-77
2024/02/24 02:54:04;;;;;;;0.17;0.10;;;6.40;99.90;;;;;;5052206;28;20036;-77
2024/02/24 02:56:29;;;;;;;0.20;0.20;;;6.40;99.90;;;;;;5050695;28;20112;-77
2024/02/24 02:58:55;;;;;;;2.23;0.67;;;6.40;99.90;;;;;;5071216;28;20121;-77
2024/02/24 03:01:21;;;;;;;1.53;0.30;;;6.40;99.90;;;;;;5055800;28;20033;-77
2024/02/24 03:03:47;;;;;;;1.38;0.40;;;6.40;99.90;;;;;;5070756;28;20055;-78
2024/02/24 03:06:13;;;;;;;0.20;0.20;;;6.40;99.90;;;;;;5055722;28;20518;-77
2024/02/24 03:08:38;;;;;;;0.65;0.20;;;6.40;99.90;;;;;;5070440;28;20124;-77
2024/02/24 03:11:04;;;;;;;0.70;0.20;;;6.40;99.90;;;;;;5071178;28;20116;-76
2024/02/24 03:13:31;;;;;;;0.93;0.20;;;6.30;99.90;;;;;;5055161;28;20052;-77
2024/02/24 03:15:56;;;;;;;0.82;0.17;;;6.30;99.90;;;;;;5055360;28;20021;-77
2024/02/24 03:18:22;;;;;;;1.65;0.20;;;6.20;99.90;;;;;;5070556;28;20044;-77
2024/02/24 03:20:47;;;;;;;0.47;0.30;;;6.20;99.90;;;;;;5053506;28;20051;-77
2024/02/24 03:23:15;;;;;;;0.13;0.13;;;6.10;99.90;;;;;;5070747;28;20053;-77
2024/02/24 03:25:40;;;;;;;0.52;0.20;;;6.10;99.90;;;;;;5054718;28;20099;-77
2024/02/24 03:28:06;;;;;;;2.73;0.40;;;6.00;99.90;;;;;;5054889;28;20470;-77
2024/02/24 03:30:31;;;;;;;0.37;0.20;;;6.00;99.90;;;;;;5053455;28;20036;-76
2024/02/24 03:32:57;;;;;;;0.40;0.20;;;6.00;99.90;;;;;;5055102;28;20029;-77
2024/02/24 03:35:22;;;;;;;0.67;0.30;;;6.00;99.90;;;;;;5055349;28;20032;-77
2024/02/24 03:37:49;;;;;;;0.23;0.20;;;6.00;99.90;;;;;;5054678;28;20033;-77
2024/02/24 03:40:15;;;;;;;0.80;0.20;;;6.00;99.90;;;;;;5054965;28;20032;-77
2024/02/24 03:42:40;;;;;;;0.40;0.20;;;6.00;99.90;;;;;;5069776;28;20037;-77
2024/02/24 03:45:06;;;;;;;1.70;0.32;;;6.00;99.90;;;;;;5053578;28;20107;-77
2024/02/24 03:47:32;;;;;;;3.90;0.35;;;5.90;99.90;;;;;;5053080;28;20056;-76
2024/02/24 03:49:57;;;;;;;0.20;0.20;;;5.90;99.90;;;;;;5054811;28;20379;-77
2024/02/24 03:52:23;;;;;;;0.17;0.13;;;5.90;99.90;;;;;;5070244;28;20459;-77
2024/02/24 03:54:49;;;;;;;1.13;0.30;;;5.80;99.90;;;;;;5052624;28;20736;-77
2024/02/24 03:57:14;;;;;;;0.40;0.20;;;5.90;99.90;;;;;;5054604;28;20040;-77
2024/02/24 03:59:40;;;;;;;0.30;0.30;;;5.80;99.90;;;;;;5069514;28;20025;-76
2024/02/24 04:02:05;;;;;;;0.37;0.20;;;5.70;99.90;;;;;;5054560;28;20033;-77
2024/02/24 04:04:31;;;;;;;1.45;0.20;;;5.70;99.90;;;;;;5053852;28;20028;-76
2024/02/24 04:06:56;;;;;;;0.10;0.10;;;5.70;99.90;;;;;;5054353;28;20044;-77
2024/02/24 04:09:22;;;;;;;0.43;0.20;;;5.70;99.90;;;;;;5069450;28;20071;-76
2024/02/24 04:11:48;;;;;;;0.30;0.13;;;5.50;99.90;;;;;;5052421;28;20390;-76
2024/02/24 04:14:14;;;;;;;0.22;0.20;;;5.50;99.90;;;;;;5069837;28;20029;-77
2024/02/24 04:16:39;;;;;;;1.30;0.20;;;5.50;99.90;;;;;;5052707;28;20025;-77
2024/02/24 04:19:05;;;;;;;0.30;0.30;;;5.50;99.90;;;;;;5054465;28;20071;-77
2024/02/24 04:21:30;;;;;;;0.20;0.20;;;5.30;99.90;;;;;;5054450;28;20028;-76
2024/02/24 04:23:56;;;;;;;0.90;0.20;;;5.30;99.90;;;;;;5053081;28;20029;-76
2024/02/24 04:26:22;;;;;;;0.20;0.20;;;5.30;99.90;;;;;;5053818;28;20025;-76
2024/02/24 04:28:47;;;;;;;0.30;0.20;;;5.30;99.90;;;;;;5068698;28;20052;-76
2024/02/24 04:31:13;;;;;;;0.20;0.10;;;5.40;99.90;;;;;;5053912;28;20032;-78
2024/02/24 04:33:38;;;;;;;0.77;0.20;;;5.50;99.90;;;;;;5069095;28;20116;-77
2024/02/24 04:36:04;;;;;;;1.27;0.50;;;5.50;99.90;;;;;;5054098;28;20407;-78
2024/02/24 04:38:30;;;;;;;0.20;0.20;;;5.50;99.90;;;;;;5053944;28;20021;-78
2024/02/24 04:40:55;;;;;;;0.20;0.20;;;5.50;99.90;;;;;;5053273;28;20052;-77
2024/02/24 04:43:21;;;;;;;0.67;0.40;;;5.40;99.90;;;;;;5069243;28;20492;-77
2024/02/24 04:45:46;;;;;;;1.10;0.57;;;5.40;99.90;;;;;;5053102;28;20477;-77
2024/02/24 04:48:12;;;;;;;0.30;0.20;;;5.30;99.90;;;;;;5052564;28;20036;-77
2024/02/24 04:50:38;;;;;;;0.40;0.30;;;5.30;99.90;;;;;;5068524;28;20078;-74
2024/02/24 04:53:04;;;;;;;0.57;0.20;;;5.20;99.90;;;;;;5053730;28;20032;-74
2024/02/24 04:55:29;;;;;;;0.20;0.13;;;5.20;99.90;;;;;;5068838;28;20363;-73
2024/02/24 04:57:55;;;;;;;0.13;0.10;;;5.10;99.90;;;;;;5052546;28;20029;-74
2024/02/24 05:00:20;;;;;;;1.97;0.17;;;5.10;99.90;;;;;;5053344;28;20481;-76
2024/02/24 05:02:46;;;;;;;0.93;0.30;;;5.10;99.90;;;;;;5068444;28;20033;-76
2024/02/24 05:05:12;;;;;;;1.07;0.50;;;5.10;99.90;;;;;;5052110;28;20477;-76
2024/02/24 05:07:37;;;;;;;1.10;0.20;;;5.00;99.90;;;;;;5068275;28;20025;-76
2024/02/24 05:10:04;;;;;;;0.20;0.17;;;5.00;99.90;;;;;;5053032;28;20039;-76
2024/02/24 05:12:29;;;;;;;0.20;0.20;;;5.00;99.90;;;;;;5051959;28;20071;-76
2024/02/24 05:14:55;;;;;;;0.17;0.10;;;5.00;99.90;;;;;;5068048;28;20061;-76
2024/02/24 05:17:20;;;;;;;0.20;0.20;;;5.10;99.90;;;;;;5052884;28;20048;-76
2024/02/24 05:19:46;;;;;;;0.73;0.20;;;5.10;99.90;;;;;;5067228;28;20087;-76
2024/02/24 05:22:12;;;;;;;2.30;0.20;;;5.10;99.90;;;;;;5053175;28;20074;-77
2024/02/24 05:24:38;;;;;;;0.20;0.20;;;5.20;99.90;;;;;;5068029;28;20029;-76
2024/02/24 05:27:04;;;;;;;0.47;0.10;;;5.20;99.90;;;;;;5068634;28;20025;-77
2024/02/24 05:29:30;;;;;;;0.63;0.27;;;5.20;99.90;;;;;;5053173;28;20033;-77
2024/02/24 05:31:55;;;;;;;0.63;0.20;;;5.30;99.90;;;;;;5051270;28;20037;-77
2024/02/24 05:34:21;;;;;;;0.50;0.30;;;5.30;99.90;;;;;;5068573;28;20386;-77
2024/02/24 05:36:47;;;;;;;0.43;0.30;;;5.30;99.90;;;;;;5052387;28;20024;-77
2024/02/24 05:39:12;;;;;;;0.53;0.30;;;5.30;99.90;;;;;;5052964;28;20024;-77
2024/02/24 05:41:38;;;;;;;0.80;0.30;;;5.30;99.90;;;;;;5067752;28;20159;-77
2024/02/24 05:44:03;;;;;;;0.33;0.30;;;5.20;99.90;;;;;;5068248;28;20040;-77
2024/02/24 05:46:29;;;;;;;0.27;0.27;;;5.30;99.90;;;;;;5051504;28;20028;-77
2024/02/24 05:48:55;;;;;;;0.90;0.30;;;5.30;99.90;;;;;;5050964;28;20539;-77
2024/02/24 05:51:21;;;;;;;0.30;0.20;;;5.30;99.90;;;;;;5052864;28;20028;-77
2024/02/24 05:53:48;;;;;;;0.90;0.50;;;5.30;99.90;;;;;;5067620;28;20029;-77
2024/02/24 05:56:13;;;;;;;0.20;0.20;;;5.30;99.90;;;;;;5068453;28;20462;-77
2024/02/24 05:58:39;;;;;;;3.30;0.40;;;5.40;99.90;;;;;;5050832;28;20068;-77
2024/02/24 06:01:04;;;;;;;0.40;0.20;;;5.30;99.90;;;;;;5052645;28;20029;-76
2024/02/24 06:03:30;;;;;;;0.40;0.30;;;5.30;99.90;;;;;;5052517;28;20382;-76
2024/02/24 06:05:56;;;;;;;1.27;0.40;;;5.30;99.90;;;;;;5050755;28;20110;-76
2024/02/24 06:08:21;;;;;;;0.20;0.20;;;5.20;99.90;;;;;;5052933;28;20087;-77
2024/02/24 06:10:47;;;;;;;0.27;0.10;;;5.30;99.90;;;;;;5051706;28;20035;-77
2024/02/24 06:13:13;;;;;;;0.40;0.20;;;5.30;99.90;;;;;;5050927;28;20123;-76
2024/02/24 06:15:39;;;;;;;0.33;0.27;;;5.30;99.90;;;;;;5050732;28;20071;-76
2024/02/24 06:18:05;;;;;;;0.30;0.23;;;5.30;99.90;;;;;;5067965;28;20055;-77
2024/02/24 06:20:31;;;;;;;1.30;0.40;;;5.40;99.90;;;;;;5067736;28;20032;-77
2024/02/24 06:22:56;;;;;;;1.00;0.30;;;5.40;99.90;;;;;;5067389;28;20029;-77
2024/02/24 06:25:22;;;;;;;0.40;0.30;;;5.40;99.90;;;;;;5052364;28;20029;-76
2024/02/24 06:27:48;;;;;;;1.43;0.40;;;5.40;99.90;;;;;;5051731;28;20030;-76
2024/02/24 06:30:13;;;;;;;1.13;0.63;;;5.50;99.90;;;;;;5052576;28;20032;-77
2024/02/24 06:32:39;;;;;;;0.70;0.47;;;5.50;99.90;;;;;;5055733;28;20025;-76
2024/02/24 06:35:05;;;;;;;0.50;0.50;;;5.50;99.90;;;;;;5054976;28;20028;-77
2024/02/24 06:37:30;;;;;;;0.60;0.40;;;5.60;99.90;;;;;;5071772;28;20025;-77
2024/02/24 06:39:56;;;;;;;0.73;0.50;;;5.60;99.90;;;;;;5054094;28;20033;-77
2024/02/24 06:42:22;;;;;;;1.93;0.60;;;5.60;99.90;;;;;;5056117;28;20076;-77
2024/02/24 06:44:47;;;;;;;1.60;0.67;;;5.60;99.90;;;;;;5055075;28;20057;-76
2024/02/24 06:47:13;;;;;;;1.33;0.77;;;5.70;99.90;;;;;;5071027;28;20035;-76
2024/02/24 06:49:39;;;;;;;1.57;0.50;;;5.70;99.90;;;;;;5053814;28;20037;-76
2024/02/24 06:52:05;;;;;;;1.73;0.60;;;5.70;99.90;;;;;;5054586;28;20108;-77
2024/02/24 06:54:31;;;;;;;1.37;0.80;;;5.70;99.90;;;;;;5054742;28;20469;-77
2024/02/24 06:56:57;;;;;;;1.80;0.77;;;5.80;99.90;;;;;;5053818;28;20021;-77
2024/02/24 06:59:23;;;;;;;0.63;0.50;;;5.80;99.90;;;;;;5054290;28;20124;-77
2024/02/24 07:01:48;;;;;;;1.37;0.60;;;5.90;99.90;;;;;;5053573;28;20051;-76
2024/02/24 07:04:15;;;;;;;0.73;0.50;;;5.90;99.90;;;;;;5055352;28;20025;-77
2024/02/24 07:06:41;;;;;;;1.40;0.80;;;6.00;99.90;;;;;;5055299;28;20025;-75
2024/02/24 07:09:07;;;;;;;0.67;0.40;;;5.90;99.90;;;;;;5055613;28;20024;-77
2024/02/24 07:11:33;;;;;;;2.60;0.43;;;5.90;99.90;;;;;;5054061;28;20389;-77
2024/02/24 07:13:58;;;;;;;1.40;0.73;;;5.90;99.90;;;;;;5054830;28;20039;-76
2024/02/24 07:16:24;;;;;;;1.13;0.70;;;5.90;99.90;;;;;;5054475;28;20032;-78
2024/02/24 07:18:49;;;;;;;0.80;0.50;;;5.90;99.90;;;;;;5053505;28;20378;-77
2024/02/24 07:21:15;;;;;;;0.80;0.47;;;5.90;99.90;;;;;;5055540;28;20486;-76
2024/02/24 07:23:41;;;;;;;1.07;0.60;;;5.90;99.90;;;;;;5055248;28;20031;-76
2024/02/24 07:26:07;;;;;;;1.37;0.60;;;5.90;99.90;;;;;;5054924;28;20036;-76
2024/02/24 07:28:33;;;;;;;0.93;0.60;;;5.90;99.90;;;;;;5055366;28;20100;-76
2024/02/24 07:30:58;;;;;;;1.20;0.40;;;5.90;99.90;;;;;;5053603;28;20033;-78
2024/02/24 07:33:24;;;;;;;0.63;0.40;;;6.00;99.90;;;;;;5053737;28;20104;-78
2024/02/24 07:35:50;;;;;;;1.20;0.47;;;6.00;99.90;;;;;;5054541;28;20029;-77
2024/02/24 07:38:15;;;;;;;0.73;0.43;;;6.10;99.90;;;;;;5053638;28;20029;-78
2024/02/24 07:40:44;;;;;;;1.30;0.47;;;6.00;99.90;;;;;;5054895;28;20040;-78
2024/02/24 07:43:10;;;;;;;2.10;0.50;;;6.10;99.90;;;;;;5054255;28;20063;-78
2024/02/24 07:45:35;;;;;;;1.00;0.50;;;6.10;99.90;;;;;;5054901;28;20052;-78
2024/02/24 07:48:01;;;;;;;0.67;0.57;;;6.20;99.90;;;;;;5054218;28;20033;-77
2024/02/24 07:50:27;;;;;;;1.67;0.50;;;6.20;99.90;;;;;;5054451;28;20082;-77
2024/02/24 07:52:52;;;;;;;1.63;0.60;;;6.30;99.90;;;;;;5052898;28;20029;-78
2024/02/24 07:55:18;;;;;;;2.00;0.43;;;6.30;99.90;;;;;;5053285;28;20029;-78
2024/02/24 07:57:44;;;;;;;0.70;0.47;;;6.40;99.90;;;;;;5053014;28;20032;-76
2024/02/24 08:00:10;;;;;;;0.60;0.50;;;6.40;99.90;;;;;;5052619;28;20465;-77
2024/02/24 08:02:36;;;;;;;0.70;0.40;;;6.40;99.90;;;;;;5054638;28;20150;-78
2024/02/24 08:05:04;;;;;;;0.80;0.40;;;6.40;99.90;;;;;;5053947;28;20025;-78
2024/02/24 08:07:30;;;;;;;0.93;0.47;;;6.50;99.90;;;;;;5053325;28;20029;-78
2024/02/24 08:09:55;;;;;;;0.70;0.65;;;6.50;99.90;;;;;;5053000;28;20056;-78
2024/02/24 08:12:21;;;;;;;0.60;0.40;;;6.60;99.90;;;;;;5053960;28;20110;-78
2024/02/24 08:14:47;;;;;;;0.33;0.30;;;6.60;99.90;;;;;;5052608;28;20474;-77
2024/02/24 08:17:12;;;;;;;3.60;0.50;;;6.60;99.90;;;;;;5052977;28;20029;-78
2024/02/24 08:19:38;;;;;;;0.30;0.30;;;6.70;99.90;;;;;;5053993;28;20036;-78
2024/02/24 08:22:04;;;;;;;0.47;0.30;;;6.70;99.90;;;;;;5053446;28;20468;-78
2024/02/24 08:24:29;;;;;;;1.20;0.40;;;6.70;99.90;;;;;;5052790;28;20087;-78
2024/02/24 08:26:55;;;;;;;0.40;0.30;;;6.70;99.90;;;;;;5053703;28;20027;-78
2024/02/24 08:29:20;;;;;;;0.50;0.37;;;6.70;99.90;;;;;;5053013;28;20545;-78
2024/02/24 08:31:46;;;;;;;0.43;0.33;;;6.60;99.90;;;;;;5053373;28;20104;-78
2024/02/24 08:34:13;;;;;;;0.80;0.30;;;6.60;99.90;;;;;;5052766;28;20116;-78
2024/02/24 08:36:38;;;;;;;0.30;0.30;;;6.60;99.90;;;;;;5054005;28;20482;-78
2024/02/24 08:39:04;;;;;;;2.20;0.40;;;6.60;99.90;;;;;;5052043;28;20283;-78
2024/02/24 08:41:35;;;;;;;1.65;0.40;;;6.60;99.90;;;;;;5053628;28;20025;-78
2024/02/24 08:44:01;;;;;;;0.20;0.20;;;6.60;99.90;;;;;;5052497;28;20038;-77
2024/02/24 08:46:28;;;;;;;3.37;0.30;;;6.60;99.90;;;;;;5053358;28;20033;-77
2024/02/24 08:48:54;;;;;;;1.37;0.50;;;6.50;99.90;;;;;;5052041;28;20032;-77
2024/02/24 08:51:21;;;;;;;0.40;0.40;;;6.60;99.90;;;;;;5053490;28;20386;-77
2024/02/24 08:53:47;;;;;;;0.63;0.30;;;6.60;99.90;;;;;;5051819;28;20500;-77
2024/02/24 08:56:17;;;;;;;0.20;0.20;;;6.60;99.90;;;;;;5053392;28;20021;-77
2024/02/24 08:58:43;;;;;;;0.20;0.20;;;6.50;99.90;;;;;;5052163;28;20124;-77
2024/02/24 09:01:08;;;;;;;0.30;0.20;;;6.50;99.90;;;;;;5052778;28;20115;-77
2024/02/24 09:03:34;;;;;;;0.97;0.20;;;6.40;99.90;;;;;;5053308;28;20036;-77
2024/02/24 09:06:00;;;;;;;0.40;0.30;;;6.40;99.90;;;;;;5052646;28;20474;-76
2024/02/24 09:08:26;;;;;;;1.17;0.20;;;6.40;99.90;;;;;;5051908;28;20025;-77
2024/02/24 09:10:54;;;;;;;0.83;0.20;;;6.50;99.90;;;;;;5051372;28;20025;-77
2024/02/24 09:13:20;;;;;;;0.50;0.27;;;6.50;99.90;;;;;;5051842;28;20060;-77
2024/02/24 09:15:45;;;;;;;0.20;0.20;;;6.60;99.90;;;;;;5052960;28;20075;-77
2024/02/24 09:18:11;;;;;;;0.43;0.17;;;6.50;99.90;;;;;;5052543;28;20369;-76
2024/02/24 09:20:37;;;;;;;1.20;0.20;;;6.50;99.90;;;;;;5052855;28;20025;-77
2024/02/24 09:23:03;;;;;;;0.63;0.30;;;6.60;99.90;;;;;;5052540;28;20033;-78
2024/02/24 09:25:29;;;;;;;0.43;0.30;;;6.60;99.90;;;;;;5053045;28;20111;-78
2024/02/24 09:27:55;;;;;;;0.67;0.30;;;6.60;99.90;;;;;;5051175;28;20479;-78
2024/02/24 09:30:22;;;;;;;1.10;0.23;;;6.70;99.90;;;;;;5051521;28;20029;-78
2024/02/24 09:32:48;;;;;;;1.80;0.20;;;6.70;99.90;;;;;;5051240;28;20446;-76
2024/02/24 09:35:13;;;;;;;0.25;0.20;;;6.80;99.90;;;;;;5051657;28;20025;-78
2024/02/24 09:37:39;;;;;;;0.40;0.40;;;6.80;99.90;;;;;;5051608;28;20024;-79
2024/02/24 09:40:06;;;;;;;0.83;0.47;;;6.90;99.90;;;;;;5050983;28;20035;-78
2024/02/24 09:42:33;;;;;;;0.50;0.40;;;6.90;99.90;;;;;;5053014;28;20061;-78
2024/02/24 09:45:03;;;;;;;0.10;0.10;;;7.00;99.90;;;;;;5050967;28;20056;-79
2024/02/24 09:47:29;;;;;;;0.60;0.23;;;7.10;99.90;;;;;;5051794;28;20226;-78
2024/02/24 09:50:00;;;;;;;0.28;0.20;;;7.20;99.90;;;;;;5051073;28;20083;-79
2024/02/24 09:52:26;;;;;;;0.35;0.35;;;7.40;99.90;;;;;;5051649;28;20079;-78
2024/02/24 09:54:51;;;;;;;0.50;0.20;;;7.50;99.90;;;;;;5052220;28;20025;-78
2024/02/24 09:57:19;;;;;;;0.70;0.35;;;7.70;99.90;;;;;;5051838;28;20029;-78
2024/02/24 09:59:48;;;;;;;0.75;0.50;;;7.80;99.90;;;;;;5051515;28;20032;-79
2024/02/24 10:02:14;;;;;;;0.28;0.25;;;7.90;99.90;;;;;;5051300;28;20458;-78
2024/02/24 10:04:40;;;;;;;1.33;0.30;;;7.90;99.90;;;;;;5051586;28;20033;-79
2024/02/24 10:07:06;;;;;;;1.45;0.60;;;8.00;99.90;;;;;;5056903;28;20117;-79
2024/02/24 10:09:33;;;;;;;0.40;0.30;;;8.20;99.90;;;;;;5059590;28;20033;-80
2024/02/24 10:12:01;;;;;;;0.38;0.38;;;8.30;99.90;;;;;;5057555;28;20174;-79
2024/02/24 10:14:32;;;;;;;1.00;0.30;;;8.30;99.90;;;;;;5059503;28;20033;-80
2024/02/24 10:16:59;;;;;;;0.57;0.20;;;8.30;99.90;;;;;;5057756;28;20036;-79
2024/02/24 10:19:30;;;;;;;0.10;0.10;;;8.30;99.90;;;;;;5059317;28;20025;-80
2024/02/24 10:21:57;;;;;;;0.40;0.20;;;8.40;99.90;;;;;;5058950;28;20025;-80
2024/02/24 10:24:23;;;;;;;0.75;0.20;;;8.40;99.90;;;;;;5058047;28;20056;-80
2024/02/24 10:26:52;;;;;;;1.77;0.20;;;8.60;99.90;;;;;;5058283;28;20029;-80
2024/02/24 10:29:20;;;;;;;1.65;0.20;;;8.60;99.90;;;;;;5058048;28;20033;-79
2024/02/24 10:31:47;;;;;;;0.57;0.30;;;8.50;99.90;;;;;;5059136;28;20053;-80
2024/02/24 10:34:13;;;;;;;0.82;0.30;;;8.50;99.90;;;;;;5058612;28;20032;-79
2024/02/24 10:36:39;;;;;;;0.38;0.28;;;8.40;99.90;;;;;;5059241;28;20028;-80
2024/02/24 10:39:06;;;;;;;0.52;0.30;;;8.50;99.90;;;;;;5056882;28;20094;-78
2024/02/24 10:41:33;;;;;;;1.98;0.45;;;8.50;99.90;;;;;;5057568;28;20512;-79
2024/02/24 10:43:59;;;;;;;2.60;0.40;;;8.50;99.90;;;;;;5057084;28;20067;-79
2024/02/24 10:46:25;;;;;;;1.42;0.35;;;8.50;99.90;;;;;;5057712;28;20049;-78
2024/02/24 10:48:51;;;;;;;0.60;0.25;;;8.40;99.90;;;;;;5058742;28;20032;-76
2024/02/24 10:51:17;;;;;;;0.32;0.20;;;8.40;99.90;;;;;;5058796;28;20036;-78
2024/02/24 10:53:50;;;;;;;0.65;0.13;;;8.40;99.90;;;;;;5057830;28;20079;-79
2024/02/24 10:56:18;;;;;;;0.28;0.10;;;8.40;99.90;;;;;;5058655;28;20048;-79
2024/02/24 10:58:44;;;;;;;0.32;0.20;;;8.40;99.90;;;;;;5058868;28;20028;-80
2024/02/24 11:01:09;;;;;;;2.40;0.40;;;8.50;99.90;;;;;;5058234;28;20045;-79
2024/02/24 11:03:35;;;;;;;0.70;0.50;;;8.60;99.90;;;;;;5057812;28;20033;-79
2024/02/24 11:06:02;;;;;;;1.27;0.40;;;8.60;99.90;;;;;;5056740;28;20074;-78
2024/02/24 11:08:37;;;;;;;0.45;0.20;;;8.70;99.90;;;;;;5058679;28;20210;-80
2024/02/24 11:11:11;;;;;;;0.40;0.20;;;8.80;99.90;;;;;;5057040;28;20024;-80
2024/02/24 11:13:37;;;;;;;0.82;0.20;;;8.80;99.90;;;;;;5059346;28;20025;-80
2024/02/24 11:16:07;;;;;;;1.10;0.22;;;8.80;99.90;;;;;;5057076;28;20058;-80
2024/02/24 11:18:48;;;;;;;1.05;0.30;;;8.90;99.90;;;;;;5054745;28;20029;-80
2024/02/24 11:21:17;;;;;;;0.57;0.13;;;9.00;99.90;;;;;;5055260;28;20041;-80
2024/02/24 11:23:44;;;;;;;0.40;0.28;;;9.00;99.90;;;;;;5055719;28;20033;-79
2024/02/24 11:26:13;;;;;;;0.95;0.20;;;9.10;99.90;;;;;;5054605;28;20032;-79
2024/02/24 11:28:40;;;;;;;0.95;0.30;;;9.20;99.90;;;;;;5055222;28;20033;-78
2024/02/24 11:31:06;;;;;;;1.52;0.30;;;9.10;99.90;;;;;;5054421;28;20056;-78
2024/02/24 11:33:37;;;;;;;1.23;0.30;;;9.00;99.90;;;;;;5053874;28;20029;-79
2024/02/24 11:36:07;;;;;;;0.40;0.30;;;9.20;99.90;;;;;;5053190;28;20021;-78
2024/02/24 11:38:33;;;;;;;0.75;0.35;;;9.30;99.90;;;;;;5053852;28;20036;-79
2024/02/24 11:41:06;;;;;;;0.75;0.20;;;9.30;99.90;;;;;;5053310;28;20032;-78
2024/02/24 11:43:32;;;;;;;1.13;0.40;;;9.30;99.70;;;;;;5055385;28;20028;-79
2024/02/24 11:45:58;;;;;;;1.95;0.20;;;9.20;99.90;;;;;;5053431;28;20064;-79
2024/02/24 11:48:23;;;;;;;0.57;0.47;;;9.10;99.70;;;;;;5053699;28;20032;-78
2024/02/24 11:50:50;;;;;;;2.53;0.30;;;9.10;99.90;;;;;;5053627;28;20064;-78
2024/02/24 11:53:17;;;;;;;1.65;0.32;;;9.20;99.90;;;;;;5054243;28;20393;-78
2024/02/24 11:55:45;;;;;;;1.63;0.35;;;9.40;99.90;;;;;;5054784;28;20028;-78
2024/02/24 11:58:12;;;;;;;2.40;0.40;;;9.50;99.60;;;;;;5053961;28;20470;-78
2024/02/24 12:00:39;;;;;;;0.25;0.25;;;9.70;99.70;;;;;;5054458;28;20037;-78
2024/02/24 12:03:12;;;;;;;1.13;0.30;;;9.90;99.50;;;;;;5052446;28;20074;-77
2024/02/24 12:05:38;;;;;;;2.95;0.30;;;10.00;99.90;;;;;;5054306;28;20028;-77
2024/02/24 12:08:10;;;;;;;0.73;0.30;;;9.90;99.00;;;;;;5052306;28;20545;-78
2024/02/24 12:10:37;;;;;;;0.82;0.20;;;9.80;98.90;;;;;;5053164;28;20059;-78
2024/02/24 12:13:08;;;;;;;1.48;0.30;;;9.80;98.30;;;;;;5052132;28;20075;-77
2024/02/24 12:15:34;;;;;;;2.17;0.47;;;9.80;98.60;;;;;;5054175;28;20040;-78
2024/02/24 12:18:04;;;;;;;2.35;0.28;;;9.90;98.20;;;;;;5052468;28;20033;-79
2024/02/24 12:20:30;;;;;;;0.20;0.20;;;10.00;98.40;;;;;;5053010;28;20375;-78
2024/02/24 12:23:02;;;;;;;2.58;0.30;;;9.90;98.00;;;;;;5053031;28;20382;-75
2024/02/24 12:25:28;;;;;;;0.80;0.20;;;9.80;97.70;;;;;;5053355;28;20115;-75
2024/02/24 12:27:55;;;;;;;1.30;0.20;;;9.60;98.00;;;;;;5054003;28;20025;-75
2024/02/24 12:30:21;;;;;;;1.23;0.30;;;9.50;98.00;;;;;;5051559;28;20496;-75
2024/02/24 12:32:47;;;;;;;1.35;0.20;;;9.40;98.30;;;;;;5052593;28;20025;-75
2024/02/24 12:35:13;;;;;;;0.73;0.40;;;9.60;98.40;;;;;;5053256;28;20048;-74
2024/02/24 12:37:39;;;;;;;1.55;0.30;;;9.70;98.50;;;;;;5052672;28;20053;-74
2024/02/24 12:40:05;;;;;;;2.92;0.40;;;9.60;98.30;;;;;;5052866;28;20064;-74
2024/02/24 12:42:39;;;;;;;1.10;0.20;;;9.60;98.50;;;;;;5053347;28;20125;-74
2024/02/24 12:45:05;;;;;;;0.80;0.20;;;9.60;98.40;;;;;;5052950;28;20056;-74
2024/02/24 12:47:32;;;;;;;0.40;0.30;;;9.60;98.90;;;;;;5053447;28;20048;-74
2024/02/24 12:49:58;;;;;;;1.65;0.22;;;9.80;98.60;;;;;;5052953;28;20078;-73
2024/02/24 12:52:24;;;;;;;2.00;0.52;;;9.90;97.70;;;;;;5052038;28;20036;-74